createdAt,value
2022-09-13T00:01:09.217Z,78.60
2022-09-13T00:03:36.736Z,78.50
2022-09-13T00:06:22.994Z,78.50
2022-09-13T00:08:51.178Z,78.60
2022-09-13T00:11:25.463Z,78.60
2022-09-13T00:13:53.786Z,78.60
2022-09-13T00:16:25.224Z,78.60
2022-09-13T00:18:54.615Z,78.60
2022-09-13T00:21:24.177Z,78.60
2022-09-13T00:23:54.323Z,78.60
2022-09-13T00:26:28.024Z,78.60
2022-09-13T00:28:58.865Z,78.50
2022-09-13T00:31:28.182Z,78.60
2022-09-13T00:33:57.224Z,78.50
2022-09-13T00:36:24.640Z,78.60
2022-09-13T00:38:52.109Z,78.50
2022-09-13T00:41:21.309Z,78.50
2022-09-13T00:44:49.218Z,78.50
2022-09-13T00:47:33.536Z,78.60
2022-09-13T00:50:25.111Z,78.60
2022-09-13T00:53:28.014Z,78.50
2022-09-13T00:55:59.634Z,78.50
2022-09-13T00:58:49.495Z,78.50
2022-09-13T01:01:19.719Z,78.50
2022-09-13T01:03:49.125Z,78.50
2022-09-13T01:06:28.403Z,78.50
2022-09-13T01:08:59.200Z,78.50
2022-09-13T01:11:38.168Z,78.50
2022-09-13T01:14:08.061Z,78.40
2022-09-13T01:16:35.549Z,78.50
2022-09-13T01:19:03.037Z,78.40
2022-09-13T01:21:56.355Z,78.50
2022-09-13T01:25:07.222Z,78.50
2022-09-13T01:28:09.806Z,78.40
2022-09-13T01:30:59.448Z,78.50
2022-09-13T01:33:36.487Z,78.50
2022-09-13T01:36:53.459Z,78.40
2022-09-13T01:40:04.868Z,78.40
2022-09-13T01:43:12.822Z,78.40
2022-09-13T01:46:12.593Z,78.50
2022-09-13T01:49:16.110Z,78.50
2022-09-13T01:52:04.357Z,78.40
2022-09-13T01:54:54.536Z,78.40
2022-09-13T01:57:43.501Z,78.40
2022-09-13T02:00:16.324Z,78.40
2022-09-13T02:03:00.302Z,78.40
2022-09-13T02:05:47.044Z,78.40
2022-09-13T02:08:48.626Z,78.40
2022-09-13T02:11:21.115Z,78.40
2022-09-13T02:14:18.298Z,78.30
2022-09-13T02:16:55.118Z,78.40
2022-09-13T02:19:36.775Z,78.40
2022-09-13T02:22:08.565Z,78.30
2022-09-13T02:24:47.690Z,78.40
2022-09-13T02:27:25.012Z,78.40
2022-09-13T02:29:57.825Z,78.40
2022-09-13T02:32:34.813Z,78.40
2022-09-13T02:35:16.008Z,78.30
2022-09-13T02:37:49.115Z,78.30
2022-09-13T02:40:22.939Z,78.30
2022-09-13T02:43:33.826Z,78.30
2022-09-13T02:46:21.771Z,78.30
2022-09-13T02:49:04.086Z,78.30
2022-09-13T02:51:56.609Z,78.40
2022-09-13T02:54:52.213Z,78.30
2022-09-13T02:57:48.121Z,78.40
2022-09-13T03:00:15.756Z,78.30
2022-09-13T03:02:46.217Z,78.30
2022-09-13T03:05:13.637Z,78.30
2022-09-13T03:07:41.097Z,78.40
2022-09-13T03:10:12.237Z,78.30
2022-09-13T03:13:10.910Z,78.30
2022-09-13T03:16:16.432Z,78.40
2022-09-13T03:19:28.074Z,78.30
2022-09-13T03:22:24.584Z,78.30
2022-09-13T03:25:11.132Z,78.20
2022-09-13T03:28:07.417Z,78.30
2022-09-13T03:30:39.323Z,78.20
2022-09-13T03:33:47.528Z,78.20
2022-09-13T03:36:33.807Z,78.20
2022-09-13T03:39:23.809Z,78.20
2022-09-13T03:41:57.106Z,78.20
2022-09-13T03:44:26.777Z,78.20
2022-09-13T03:47:00.226Z,78.10
2022-09-13T03:49:29.598Z,78.20
2022-09-13T03:51:58.239Z,78.10
2022-09-13T03:54:32.819Z,78.10
2022-09-13T03:57:21.713Z,78.20
2022-09-13T03:59:57.614Z,78.20
2022-09-13T04:02:26.957Z,78.10
2022-09-13T04:04:54.830Z,78.10
2022-09-13T04:07:25.805Z,78.10
2022-09-13T04:09:53.497Z,78.20
2022-09-13T04:12:20.978Z,78.20
2022-09-13T04:14:48.414Z,78.10
2022-09-13T04:17:16.506Z,78.20
2022-09-13T04:19:45.938Z,78.20
2022-09-13T04:22:14.176Z,78.20
2022-09-13T04:24:43.620Z,78.20
2022-09-13T04:27:11.208Z,78.20
2022-09-13T04:29:38.861Z,78.30
2022-09-13T04:32:06.722Z,78.20
2022-09-13T04:34:34.482Z,78.30
2022-09-13T04:37:01.949Z,78.30
2022-09-13T04:39:29.281Z,78.30
2022-09-13T04:41:56.884Z,78.30
2022-09-13T04:44:24.697Z,78.30
2022-09-13T04:46:52.353Z,78.50
2022-09-13T04:49:23.226Z,78.60
2022-09-13T04:51:50.897Z,78.60
2022-09-13T04:54:18.585Z,78.60
2022-09-13T04:56:46.479Z,78.70
2022-09-13T04:59:14.429Z,78.60
2022-09-13T05:01:42.125Z,78.70
2022-09-13T05:04:10.821Z,78.90
2022-09-13T05:06:38.505Z,79.10
2022-09-13T05:09:06.178Z,79.20
2022-09-13T05:11:34.190Z,79.30
2022-09-13T05:14:02.138Z,79.40
2022-09-13T05:16:33.459Z,79.40
2022-09-13T05:19:02.274Z,79.50
2022-09-13T05:21:31.267Z,79.60
2022-09-13T05:23:59.402Z,79.70
2022-09-13T05:26:31.535Z,79.80
2022-09-13T05:29:00.714Z,79.90
2022-09-13T05:31:39.094Z,79.80
2022-09-13T05:34:14.198Z,80.00
2022-09-13T05:36:42.303Z,80.00
2022-09-13T05:42:03.254Z,80.20
2022-09-13T05:44:30.767Z,80.30
2022-09-13T05:46:58.315Z,80.20
2022-09-13T05:49:25.920Z,80.40
2022-09-13T05:51:53.504Z,80.40
2022-09-13T05:54:20.917Z,80.40
2022-09-13T05:56:48.379Z,80.40
2022-09-13T05:59:15.975Z,80.60
2022-09-13T06:01:43.641Z,80.60
2022-09-13T06:04:12.698Z,80.80
2022-09-13T06:06:42.577Z,80.90
2022-09-13T06:09:12.099Z,80.80
2022-09-13T06:11:39.740Z,80.90
2022-09-13T06:14:07.541Z,81.10
2022-09-13T06:16:35.150Z,81.20
2022-09-13T06:19:03.052Z,81.10
2022-09-13T06:21:30.540Z,81.10
2022-09-13T06:23:58.101Z,81.00
2022-09-13T06:26:28.060Z,81.20
2022-09-13T06:28:58.910Z,81.30
2022-09-13T06:31:28.805Z,81.90
2022-09-13T06:33:59.907Z,81.30
2022-09-13T06:36:27.984Z,81.30
2022-09-13T06:38:57.116Z,81.30
2022-09-13T06:41:26.510Z,81.30
2022-09-13T06:43:57.760Z,81.30
2022-09-13T06:46:27.731Z,81.40
2022-09-13T06:48:55.595Z,81.30
2022-09-13T06:51:25.484Z,81.30
2022-09-13T06:53:56.987Z,81.20
2022-09-13T06:56:32.599Z,81.50
2022-09-13T06:59:04.874Z,81.40
2022-09-13T07:01:39.541Z,81.40
2022-09-13T07:04:10.891Z,81.60
2022-09-13T07:06:49.732Z,81.60
2022-09-13T07:09:21.865Z,81.70
2022-09-13T07:11:53.573Z,81.60
2022-09-13T07:14:28.161Z,81.70
2022-09-13T07:16:56.595Z,81.60
2022-09-13T07:19:28.665Z,81.70
2022-09-13T07:21:58.384Z,81.70
2022-09-13T07:24:26.405Z,81.80
2022-09-13T07:26:54.047Z,81.70
2022-09-13T07:29:24.039Z,81.70
2022-09-13T07:31:54.951Z,81.70
2022-09-13T07:34:25.162Z,82.30
2022-09-13T07:36:53.295Z,82.10
2022-09-13T07:39:24.643Z,82.10
2022-09-13T07:41:54.047Z,82.20
2022-09-13T07:44:21.820Z,82.20
2022-09-13T07:46:49.321Z,82.50
2022-09-13T07:49:19.371Z,82.20
2022-09-13T07:51:47.306Z,82.70
2022-09-13T07:54:18.200Z,82.00
2022-09-13T07:56:46.145Z,82.10
2022-09-13T07:59:16.201Z,81.90
2022-09-13T08:01:47.264Z,81.80
2022-09-13T08:04:19.075Z,82.00
2022-09-13T08:06:47.073Z,82.20
2022-09-13T08:09:15.600Z,82.60
2022-09-13T08:11:53.335Z,83.00
2022-09-13T08:14:22.911Z,83.10
2022-09-13T08:16:50.583Z,83.60
2022-09-13T08:19:19.208Z,83.70
2022-09-13T08:21:47.837Z,83.30
2022-09-13T08:24:23.843Z,83.30
2022-09-13T08:26:54.569Z,83.50
2022-09-13T08:29:23.893Z,83.70
2022-09-13T08:31:51.407Z,83.90
2022-09-13T08:34:20.120Z,83.80
2022-09-13T08:36:47.607Z,83.90
2022-09-13T08:39:15.010Z,83.80
2022-09-13T08:41:42.596Z,83.60
2022-09-13T08:44:27.645Z,83.30
2022-09-13T08:47:28.966Z,83.60
2022-09-13T08:50:22.861Z,83.70
2022-09-13T08:53:45.419Z,83.50
2022-09-13T08:56:29.918Z,83.80
2022-09-13T08:59:34.319Z,83.70
2022-09-13T09:02:13.380Z,83.60
2022-09-13T09:05:17.075Z,83.50
2022-09-13T09:07:58.869Z,83.50
2022-09-13T09:10:34.298Z,83.40
2022-09-13T09:14:06.841Z,83.40
2022-09-13T09:16:47.814Z,83.40
2022-09-13T09:19:35.461Z,83.10
2022-09-13T09:22:10.149Z,83.00
2022-09-13T09:24:39.283Z,83.30
2022-09-13T09:27:17.681Z,83.10
2022-09-13T09:29:49.033Z,83.20
2022-09-13T09:32:45.826Z,83.20
2022-09-13T09:35:48.265Z,83.00
2022-09-13T09:38:32.948Z,82.90
2022-09-13T09:41:07.031Z,83.10
2022-09-13T09:43:49.195Z,82.90
2022-09-13T09:46:18.117Z,82.50
2022-09-13T09:48:54.527Z,82.80
2022-09-13T09:51:26.017Z,82.70
2022-09-13T09:54:01.060Z,83.00
2022-09-13T09:56:33.418Z,83.10
2022-09-13T09:59:01.097Z,82.80
2022-09-13T10:01:35.972Z,82.60
2022-09-13T10:04:03.838Z,82.30
2022-09-13T10:06:32.157Z,82.40
2022-09-13T10:09:07.164Z,82.40
2022-09-13T10:11:49.796Z,82.20
2022-09-13T10:14:40.305Z,82.30
2022-09-13T10:17:27.757Z,82.20
2022-09-13T10:20:05.036Z,82.30
2022-09-13T10:22:33.788Z,82.40
2022-09-13T10:25:24.386Z,82.50
2022-09-13T10:28:01.664Z,82.50
2022-09-13T10:30:39.521Z,82.80
2022-09-13T10:33:25.622Z,82.80
2022-09-13T10:35:58.696Z,82.90
2022-09-13T10:38:46.033Z,83.10
2022-09-13T10:41:25.301Z,83.20
2022-09-13T10:44:09.649Z,83.50
2022-09-13T10:46:40.364Z,83.50
2022-09-13T10:49:53.656Z,83.70
2022-09-13T10:52:36.717Z,83.80
2022-09-13T10:55:19.261Z,83.80
2022-09-13T10:57:51.506Z,83.70
2022-09-13T11:00:31.309Z,83.70
2022-09-13T11:03:27.196Z,83.60
2022-09-13T11:06:40.132Z,83.60
2022-09-13T11:09:44.499Z,83.80
2022-09-13T11:12:25.175Z,83.90
2022-09-13T11:15:19.333Z,84.20
2022-09-13T11:18:16.588Z,84.50
2022-09-13T11:21:02.746Z,84.70
2022-09-13T11:24:26.499Z,84.90
2022-09-13T11:27:29.000Z,85.80
2022-09-13T11:30:20.430Z,86.00
2022-09-13T11:32:59.746Z,86.90
2022-09-13T11:36:01.932Z,86.80
2022-09-13T11:38:47.221Z,87.40
2022-09-13T11:41:36.492Z,87.40
2022-09-13T11:44:33.045Z,87.70
2022-09-13T11:47:29.176Z,87.70
2022-09-13T11:50:00.223Z,87.60
2022-09-13T11:53:09.086Z,87.30
2022-09-13T11:55:48.206Z,87.00
2022-09-13T11:58:52.379Z,86.80
2022-09-13T12:01:38.746Z,86.60
2022-09-13T12:04:25.314Z,86.50
2022-09-13T12:07:25.236Z,86.30
2022-09-13T12:10:01.059Z,85.90
2022-09-13T12:12:34.639Z,85.70
2022-09-13T12:15:17.907Z,85.40
2022-09-13T12:18:15.212Z,85.30
2022-09-13T12:21:00.356Z,85.20
2022-09-13T12:24:06.521Z,85.10
2022-09-13T12:27:08.698Z,85.10
2022-09-13T12:30:10.576Z,84.90
2022-09-13T12:32:39.337Z,84.80
2022-09-13T12:35:11.042Z,84.70
2022-09-13T12:38:10.968Z,84.70
2022-09-13T12:41:08.799Z,84.60
2022-09-13T12:44:02.410Z,84.70
2022-09-13T12:47:16.713Z,84.60
2022-09-13T12:50:22.625Z,84.60
2022-09-13T12:53:38.217Z,84.50
2022-09-13T12:56:58.129Z,84.50
2022-09-13T12:59:58.037Z,84.50
2022-09-13T13:02:39.437Z,84.50
2022-09-13T13:05:30.944Z,84.40
2022-09-13T13:08:32.866Z,84.40
2022-09-13T13:11:16.402Z,84.50
2022-09-13T13:13:47.036Z,84.50
2022-09-13T13:16:37.974Z,84.50
2022-09-13T13:19:33.188Z,84.50
2022-09-13T13:22:44.449Z,84.40
2022-09-13T13:25:45.652Z,84.30
2022-09-13T13:28:47.835Z,84.30
2022-09-13T13:31:30.183Z,84.40
2022-09-13T13:34:14.563Z,84.30
2022-09-13T13:36:42.177Z,84.30
2022-09-13T13:39:27.617Z,84.30
2022-09-13T13:42:13.477Z,84.30
2022-09-13T13:44:43.971Z,84.40
2022-09-13T13:47:14.189Z,84.40
2022-09-13T13:49:46.394Z,84.30
2022-09-13T13:52:18.068Z,84.20
2022-09-13T13:54:45.533Z,84.20
2022-09-13T13:57:39.001Z,84.30
2022-09-13T14:00:21.038Z,84.30
2022-09-13T14:02:53.646Z,84.20
2022-09-13T14:06:02.972Z,84.20
2022-09-13T14:08:57.512Z,84.20
2022-09-13T14:11:51.324Z,84.30
2022-09-13T14:14:36.577Z,84.20
2022-09-13T14:17:25.777Z,84.40
2022-09-13T14:19:58.913Z,84.20
2022-09-13T14:22:29.019Z,84.10
2022-09-13T14:24:59.446Z,84.10
2022-09-13T14:27:31.804Z,84.10
2022-09-13T14:30:15.378Z,84.10
2022-09-13T14:32:57.395Z,84.20
2022-09-13T14:35:34.583Z,84.10
2022-09-13T14:38:23.261Z,84.20
2022-09-13T14:40:59.668Z,84.10
2022-09-13T14:43:30.014Z,84.30
2022-09-13T14:46:22.421Z,84.10
2022-09-13T14:49:08.049Z,84.10
2022-09-13T14:51:52.930Z,84.00
2022-09-13T14:54:24.797Z,84.10
2022-09-13T14:56:57.819Z,84.10
2022-09-13T14:59:51.414Z,84.10
2022-09-13T15:02:23.861Z,84.10
2022-09-13T15:04:55.748Z,84.10
2022-09-13T15:07:33.567Z,84.00
2022-09-13T15:10:13.237Z,84.10
2022-09-13T15:13:09.180Z,84.10
2022-09-13T15:15:42.609Z,84.10
2022-09-13T15:18:16.064Z,84.10
2022-09-13T15:21:04.847Z,84.00
2022-09-13T15:23:39.482Z,84.00
2022-09-13T15:26:26.388Z,84.00
2022-09-13T15:28:57.465Z,84.00
2022-09-13T15:31:31.474Z,84.20
2022-09-13T15:34:17.549Z,84.10
2022-09-13T15:36:47.159Z,84.00
2022-09-13T15:39:21.870Z,84.00
2022-09-13T15:42:00.844Z,84.00
2022-09-13T15:44:30.072Z,84.40
2022-09-13T15:47:05.118Z,84.60
2022-09-13T15:49:33.357Z,84.50
2022-09-13T15:52:05.864Z,84.50
2022-09-13T15:54:41.143Z,84.50
2022-09-13T15:57:25.089Z,84.60
2022-09-13T15:59:54.406Z,84.70
2022-09-13T16:02:26.549Z,84.60
2022-09-13T16:04:54.780Z,84.60
2022-09-13T16:07:24.639Z,84.60
2022-09-13T16:09:52.756Z,84.60
2022-09-13T16:12:23.703Z,84.70
2022-09-13T16:14:51.155Z,85.10
2022-09-13T16:17:27.627Z,85.20
2022-09-13T16:19:55.602Z,85.30
2022-09-13T16:22:23.711Z,84.90
2022-09-13T16:24:51.098Z,85.00
2022-09-13T16:27:20.048Z,85.20
2022-09-13T16:29:48.496Z,85.30
2022-09-13T16:32:15.984Z,85.20
2022-09-13T16:34:43.390Z,85.20
2022-09-13T16:37:16.228Z,85.20
2022-09-13T16:39:45.829Z,85.20
2022-09-13T16:42:15.538Z,85.10
2022-09-13T16:44:43.601Z,85.10
2022-09-13T16:47:11.303Z,85.10
2022-09-13T16:49:39.052Z,85.10
2022-09-13T16:52:07.486Z,85.10
2022-09-13T16:54:35.978Z,85.10
2022-09-13T16:57:07.431Z,85.10
2022-09-13T16:59:34.977Z,85.10
2022-09-13T17:02:04.013Z,85.10
2022-09-13T17:04:31.692Z,85.20
2022-09-13T17:07:02.126Z,85.20
2022-09-13T17:09:31.033Z,85.20
2022-09-13T17:11:58.853Z,85.40
2022-09-13T17:14:26.517Z,85.50
2022-09-13T17:16:56.737Z,85.60
2022-09-13T17:19:30.597Z,85.60
2022-09-13T17:21:58.505Z,85.60
2022-09-13T17:24:28.373Z,85.40
2022-09-13T17:26:59.748Z,85.40
2022-09-13T17:29:31.195Z,85.30
2022-09-13T17:32:00.553Z,85.30
2022-09-13T17:34:29.059Z,85.20
2022-09-13T17:36:57.372Z,85.90
2022-09-13T17:39:25.012Z,85.20
2022-09-13T17:41:52.682Z,85.30
2022-09-13T17:44:20.072Z,85.20
2022-09-13T17:46:47.431Z,85.10
2022-09-13T17:49:15.075Z,85.10
2022-09-13T17:51:43.371Z,85.10
2022-09-13T17:54:12.065Z,85.00
2022-09-13T17:56:43.280Z,85.10
2022-09-13T17:59:15.856Z,85.20
2022-09-13T18:01:49.595Z,85.10
2022-09-13T18:04:19.442Z,85.00
2022-09-13T18:06:47.228Z,85.00
2022-09-13T18:09:16.142Z,84.90
2022-09-13T18:11:44.651Z,85.10
2022-09-13T18:14:16.238Z,86.10
2022-09-13T18:16:45.092Z,85.60
2022-09-13T18:19:12.900Z,85.80
2022-09-13T18:21:40.661Z,85.70
2022-09-13T18:24:08.247Z,85.80
2022-09-13T18:26:36.449Z,85.80
2022-09-13T18:29:14.749Z,85.80
2022-09-13T18:31:43.045Z,85.80
2022-09-13T18:34:13.654Z,85.70
2022-09-13T18:36:41.893Z,85.90
2022-09-13T18:39:20.296Z,85.90
2022-09-13T18:41:48.702Z,85.90
2022-09-13T18:44:17.816Z,86.00
2022-09-13T18:46:46.746Z,85.80
2022-09-13T18:49:15.296Z,85.80
2022-09-13T18:51:45.237Z,85.80
2022-09-13T18:54:16.339Z,85.80
2022-09-13T18:56:45.470Z,85.60
2022-09-13T18:59:13.784Z,85.60
2022-09-13T19:01:43.611Z,85.70
2022-09-13T19:04:20.087Z,85.60
2022-09-13T19:06:54.255Z,85.50
2022-09-13T19:09:22.926Z,85.40
2022-09-13T19:11:53.337Z,85.50
2022-09-13T19:14:32.710Z,85.40
2022-09-13T19:17:04.832Z,85.30
2022-09-13T19:19:32.484Z,85.40
2022-09-13T19:21:59.956Z,85.50
2022-09-13T19:24:27.611Z,85.50
2022-09-13T19:26:55.176Z,85.60
2022-09-13T19:29:24.240Z,85.60
2022-09-13T19:31:53.409Z,85.50
2022-09-13T19:34:22.860Z,85.50
2022-09-13T19:36:57.995Z,85.50
2022-09-13T19:39:29.586Z,85.50
2022-09-13T19:42:02.533Z,85.50
2022-09-13T19:44:30.267Z,85.40
2022-09-13T19:47:36.246Z,85.40
2022-09-13T19:49:45.360Z,85.40
2022-09-13T19:52:12.799Z,85.30
2022-09-13T19:54:40.416Z,85.30
2022-09-13T19:57:09.796Z,85.30
2022-09-13T19:59:37.626Z,85.40
2022-09-13T20:02:05.588Z,85.30
2022-09-13T20:04:33.263Z,85.20
2022-09-13T20:07:00.782Z,85.20
2022-09-13T20:09:28.276Z,85.20
2022-09-13T20:12:00.644Z,85.20
2022-09-13T20:14:28.263Z,85.20
2022-09-13T20:16:55.670Z,85.20
2022-09-13T20:19:40.637Z,85.20
2022-09-13T20:22:10.513Z,85.20
2022-09-13T20:24:37.971Z,85.20
2022-09-13T20:27:05.864Z,85.20
2022-09-13T20:29:33.572Z,85.30
2022-09-13T20:32:02.397Z,85.30
2022-09-13T20:34:30.154Z,85.40
2022-09-13T20:36:57.811Z,85.30
2022-09-13T20:39:25.485Z,85.20
2022-09-13T20:41:54.168Z,85.20
2022-09-13T20:44:21.718Z,85.20
2022-09-13T20:46:49.204Z,85.30
2022-09-13T20:49:17.015Z,85.40
2022-09-13T20:51:44.410Z,85.40
2022-09-13T20:54:13.497Z,85.40
2022-09-13T20:56:41.196Z,85.50
2022-09-13T20:59:08.644Z,85.40
2022-09-13T21:01:36.816Z,85.40
2022-09-13T21:04:05.383Z,85.40
2022-09-13T21:07:00.532Z,85.40
2022-09-13T21:09:28.725Z,85.50
2022-09-13T21:11:56.246Z,85.50
2022-09-13T21:14:23.995Z,85.60
2022-09-13T21:16:51.548Z,85.50
2022-09-13T21:19:19.061Z,85.50
2022-09-13T21:21:46.705Z,85.50
2022-09-13T21:24:15.961Z,85.70
2022-09-13T21:26:43.566Z,85.70
2022-09-13T21:29:12.087Z,85.70
2022-09-13T21:31:40.666Z,85.60
2022-09-13T21:34:19.235Z,85.70
2022-09-13T21:36:48.034Z,85.70
2022-09-13T21:39:16.711Z,85.70
2022-09-13T21:41:44.222Z,85.70
2022-09-13T21:44:12.374Z,85.70
2022-09-13T21:46:41.161Z,85.70
2022-09-13T21:49:12.386Z,85.80
2022-09-13T21:51:45.817Z,86.80
2022-09-13T21:54:19.368Z,85.90
2022-09-13T21:56:54.280Z,85.80
2022-09-13T21:59:22.460Z,85.50
2022-09-13T22:01:52.086Z,85.40
2022-09-13T22:04:27.599Z,85.20
2022-09-13T22:06:56.007Z,85.30
2022-09-13T22:09:27.401Z,85.30
2022-09-13T22:11:56.820Z,85.30
2022-09-13T22:14:24.198Z,85.30
2022-09-13T22:16:53.371Z,85.40
2022-09-13T22:19:26.992Z,85.40
2022-09-13T22:21:59.395Z,85.40
2022-09-13T22:24:32.361Z,85.50
2022-09-13T22:27:00.023Z,85.40
2022-09-13T22:29:28.410Z,85.40
2022-09-13T22:31:55.899Z,85.40
2022-09-13T22:34:25.664Z,85.40
2022-09-13T22:36:55.969Z,85.50
2022-09-13T22:39:24.202Z,85.90
2022-09-13T22:41:51.911Z,85.50
2022-09-13T22:44:19.521Z,85.60
2022-09-13T22:46:47.943Z,85.50
2022-09-13T22:49:20.040Z,85.60
2022-09-13T22:51:49.208Z,85.50
2022-09-13T22:54:18.635Z,85.50
2022-09-13T22:56:46.173Z,85.50
2022-09-13T22:59:20.708Z,85.50
2022-09-13T23:01:48.848Z,85.50
2022-09-13T23:04:17.160Z,85.40
2022-09-13T23:06:45.424Z,85.50
2022-09-13T23:09:18.155Z,85.50
2022-09-13T23:11:46.164Z,85.50
2022-09-13T23:14:16.452Z,85.50
2022-09-13T23:16:54.357Z,85.50
2022-09-13T23:19:23.269Z,85.40
2022-09-13T23:21:53.874Z,85.40
2022-09-13T23:24:25.468Z,85.40
2022-09-13T23:26:56.082Z,85.40
2022-09-13T23:29:23.550Z,85.40
2022-09-13T23:31:52.169Z,85.40
2022-09-13T23:34:19.825Z,85.30
2022-09-13T23:36:47.616Z,85.30
2022-09-13T23:39:18.977Z,85.30
2022-09-13T23:41:49.410Z,85.30
2022-09-13T23:44:17.709Z,85.30
2022-09-13T23:46:45.278Z,85.30
2022-09-13T23:49:12.830Z,85.40
2022-09-13T23:51:40.285Z,85.30
2022-09-13T23:54:08.581Z,85.30
2022-09-13T23:56:36.941Z,85.30
2022-09-13T23:59:06.436Z,85.30
